Time;durP1;ratioP1;P1;durP2;ratioP2;P2;SDS_P1;SDS_P2;PMS_P1;PMS_P2;Temp;Humidity;BMP_temperature;BMP_pressure;BME280_temperature;BME280_humidity;BME280_pressure;Samples;Min_cycle;Max_cycle;Signal;HPM_P1;HPM_P2
2022/11/01 00:01:20;;;;;;;23.48;8.32;;;;;;;13.66;100.00;100674.19;5045061;28;20468;-70
2022/11/01 00:03:46;;;;;;;21.17;7.75;;;;;;;13.75;100.00;100663.47;5041987;28;20033;-71
2022/11/01 00:06:11;;;;;;;22.30;7.63;;;;;;;13.90;100.00;100671.25;5045647;28;20025;-70
2022/11/01 00:08:37;;;;;;;21.83;7.60;;;;;;;14.11;100.00;100662.13;5042743;28;20582;-70
2022/11/01 00:11:13;;;;;;;21.45;6.82;;;;;;;14.28;100.00;100661.91;5043683;28;20018;-69
2022/11/01 00:13:39;;;;;;;22.88;7.10;;;;;;;14.44;100.00;100664.34;5042504;28;20033;-71
2022/11/01 00:16:05;;;;;;;20.38;7.00;;;;;;;14.65;100.00;100660.53;5043885;28;20021;-71
2022/11/01 00:18:30;;;;;;;21.60;7.20;;;;;;;14.79;100.00;100660.28;5043432;28;20036;-71
2022/11/01 00:20:55;;;;;;;21.55;6.85;;;;;;;14.90;100.00;100653.03;5042754;28;20033;-71
2022/11/01 00:23:21;;;;;;;22.60;6.88;;;;;;;15.00;100.00;100651.09;5044548;28;20032;-71
2022/11/01 00:25:46;;;;;;;22.75;6.40;;;;;;;15.21;100.00;100657.81;5041533;28;20072;-71
2022/11/01 00:28:11;;;;;;;21.52;6.25;;;;;;;15.31;100.00;100651.41;5045174;28;20070;-71
2022/11/01 00:30:38;;;;;;;19.58;6.30;;;;;;;15.37;100.00;100655.75;5042557;28;20658;-71
2022/11/01 00:33:04;;;;;;;22.30;6.63;;;;;;;15.47;100.00;100654.66;5043878;28;20075;-71
2022/11/01 00:35:33;;;;;;;19.83;6.30;;;;;;;15.56;100.00;100650.09;5043791;28;20438;-69
2022/11/01 00:37:58;;;;;;;20.95;6.60;;;;;;;15.63;100.00;100657.06;5042824;28;20431;-71
2022/11/01 00:40:25;;;;;;;20.05;6.20;;;;;;;15.63;100.00;100657.06;5044069;28;20071;-70
2022/11/01 00:42:50;;;;;;;21.05;6.43;;;;;;;15.56;100.00;100658.09;5041666;28;20392;-72
2022/11/01 00:45:16;;;;;;;21.05;6.03;;;;;;;15.56;100.00;100642.97;5044680;28;20029;-68
2022/11/01 00:47:41;;;;;;;20.10;6.40;;;;;;;15.61;100.00;100658.84;5041392;28;20495;-71
2022/11/01 00:50:07;;;;;;;19.73;6.28;;;;;;;15.60;100.00;100654.47;5044288;28;20088;-69
2022/11/01 00:52:33;;;;;;;20.50;6.07;;;;;;;15.63;100.00;100646.41;5042540;28;20108;-70
2022/11/01 00:54:58;;;;;;;19.75;5.97;;;;;;;15.71;100.00;100647.09;5042414;28;20104;-70
2022/11/01 00:57:23;;;;;;;19.30;6.10;;;;;;;15.66;100.00;100643.66;5044153;28;20033;-71
2022/11/01 00:59:48;;;;;;;20.48;6.40;;;;;;;15.56;100.00;100636.78;5041003;28;20043;-70
2022/11/01 01:02:14;;;;;;;18.27;5.65;;;;;;;15.49;100.00;100641.31;5044750;28;20082;-68
2022/11/01 01:04:41;;;;;;;21.67;6.38;;;;;;;15.40;100.00;100639.72;5041674;28;20033;-66
2022/11/01 01:07:08;;;;;;;20.80;6.50;;;;;;;15.47;100.00;100633.38;5043411;28;20465;-68
2022/11/01 01:09:33;;;;;;;18.83;5.90;;;;;;;15.53;100.00;100640.38;5042487;28;20025;-69
2022/11/01 01:11:59;;;;;;;21.67;6.38;;;;;;;15.61;100.00;100632.22;5042209;28;20083;-69
2022/11/01 01:14:24;;;;;;;19.58;6.07;;;;;;;15.62;100.00;100628.66;5043426;28;20472;-68
2022/11/01 01:16:50;;;;;;;20.38;6.03;;;;;;;15.66;100.00;100625.88;5041340;28;20032;-63
2022/11/01 01:19:15;;;;;;;19.10;6.15;;;;;;;15.70;100.00;100626.72;5044177;28;20024;-64
2022/11/01 01:21:40;;;;;;;19.50;6.40;;;;;;;15.73;100.00;100618.66;5041183;28;20080;-64
2022/11/01 01:24:05;;;;;;;21.35;6.65;;;;;;;15.78;100.00;100629.22;5043474;28;20044;-64
2022/11/01 01:26:31;;;;;;;20.88;6.30;;;;;;;15.75;100.00;100626.63;5042252;28;20059;-62
2022/11/01 01:28:56;;;;;;;21.23;6.00;;;;;;;15.67;100.00;100637.44;5042084;28;20381;-63
2022/11/01 01:31:21;;;;;;;19.67;6.50;;;;;;;15.75;100.00;100626.63;5043762;28;20024;-63
2022/11/01 01:33:47;;;;;;;19.70;6.25;;;;;;;15.76;100.00;100626.59;5040831;28;20031;-63
2022/11/01 01:36:12;;;;;;;21.20;6.22;;;;;;;15.78;100.00;100632.78;5043885;28;20383;-63
2022/11/01 01:38:37;;;;;;;19.50;6.15;;;;;;;15.88;100.00;100637.94;5041533;28;20334;-63
2022/11/01 01:43:47;;;;;;;20.95;6.30;;;;;;;15.99;100.00;100639.47;5037144;28;20041;-63
2022/11/01 01:46:12;;;;;;;20.92;6.45;;;;;;;15.85;100.00;100626.41;5043945;28;20469;-64
2022/11/01 01:48:40;;;;;;;19.70;6.32;;;;;;;15.86;100.00;100630.84;5041307;28;20025;-63
2022/11/01 01:51:11;;;;;;;19.05;6.40;;;;;;;15.85;100.00;100622.88;5042939;28;20427;-64
2022/11/01 01:53:44;;;;;;;22.80;6.40;;;;;;;15.84;100.00;100615.78;5041498;28;20025;-63
2022/11/01 01:56:13;;;;;;;21.15;6.55;;;;;;;15.88;100.00;100620.16;5043252;28;20043;-63
2022/11/01 01:58:50;;;;;;;20.20;6.40;;;;;;;16.00;100.00;100606.56;5041063;28;20057;-63
2022/11/01 02:01:16;;;;;;;22.85;6.70;;;;;;;16.01;100.00;100613.63;5036579;28;20029;-64
2022/11/01 02:03:42;;;;;;;20.20;6.20;;;;;;;16.07;100.00;100614.44;5043307;28;20037;-63
2022/11/01 02:06:10;;;;;;;21.17;6.78;;;;;;;16.04;100.00;100623.38;5041273;28;20049;-63
2022/11/01 02:08:44;;;;;;;19.80;6.22;;;;;;;16.08;100.00;100618.88;5042698;28;20090;-63
2022/11/01 02:11:10;;;;;;;19.90;6.10;;;;;;;15.99;100.00;100614.59;5040964;28;20029;-63
2022/11/01 02:13:36;;;;;;;20.65;6.20;;;;;;;16.04;100.00;100628.69;5044751;28;20062;-64
2022/11/01 02:16:32;;;;;;;21.27;6.30;;;;;;;15.99;100.00;100626.13;5045642;28;20029;-63
2022/11/01 02:19:25;;;;;;;20.25;6.28;;;;;;;16.04;100.00;100621.56;5043155;28;20448;-63
2022/11/01 02:22:15;;;;;;;20.65;5.88;;;;;;;16.06;100.00;100632.19;5041362;28;20087;-63
2022/11/01 02:25:01;;;;;;;21.58;5.80;;;;;;;16.09;100.00;100625.94;5044746;28;20380;-64
2022/11/01 02:27:51;;;;;;;21.15;6.63;;;;;;;16.04;100.00;100624.22;5042524;28;20036;-68
2022/11/01 02:30:19;;;;;;;19.17;5.88;;;;;;;16.08;100.00;100637.53;5040090;28;20388;-68
2022/11/01 02:32:48;;;;;;;19.75;6.00;;;;;;;16.02;100.00;100631.41;5040036;28;20393;-68
2022/11/01 02:35:17;;;;;;;19.55;5.80;;;;;;;15.97;100.00;100611.09;5047097;28;20100;-67
2022/11/01 02:38:09;;;;;;;20.33;6.10;;;;;;;16.00;100.00;100629.66;5044129;28;20029;-69
2022/11/01 02:40:43;;;;;;;19.98;5.68;;;;;;;15.99;100.00;100638.59;5044465;28;20026;-69
2022/11/01 02:43:17;;;;;;;19.98;5.50;;;;;;;16.03;100.00;100638.50;5044190;28;20055;-68
2022/11/01 02:45:47;;;;;;;20.30;5.82;;;;;;;16.08;100.00;100637.53;5046736;28;20495;-68
2022/11/01 02:48:13;;;;;;;18.30;5.65;;;;;;;16.01;100.00;100640.31;5043965;28;20094;-69
2022/11/01 02:50:46;;;;;;;19.35;5.90;;;;;;;15.92;100.00;100640.50;5045823;28;20057;-69
2022/11/01 02:53:11;;;;;;;19.08;5.70;;;;;;;15.84;100.00;100640.69;5043862;28;20052;-68
2022/11/01 02:55:37;;;;;;;18.63;5.75;;;;;;;15.85;100.00;100642.41;5045963;28;20025;-68
2022/11/01 02:58:05;;;;;;;18.77;6.07;;;;;;;15.77;100.00;100649.66;5044931;28;20415;-69
2022/11/01 03:00:33;;;;;;;19.58;5.95;;;;;;;15.71;100.00;100647.09;5044605;28;20046;-68
2022/11/01 03:03:14;;;;;;;18.50;5.97;;;;;;;15.74;100.00;100664.81;5045497;28;20095;-68
2022/11/01 03:05:52;;;;;;;19.67;5.72;;;;;;;15.74;100.00;100662.16;5046101;28;20491;-68
2022/11/01 03:08:22;;;;;;;18.67;5.70;;;;;;;15.74;100.00;100664.81;5039374;28;20049;-69
2022/11/01 03:10:53;;;;;;;20.15;6.00;;;;;;;15.75;100.00;100662.13;5039383;28;20064;-68
2022/11/01 03:13:40;;;;;;;20.02;6.10;;;;;;;15.68;100.00;100673.81;5039890;28;20103;-69
2022/11/01 03:16:46;;;;;;;19.40;6.05;;;;;;;15.81;100.00;100674.50;5044074;28;20025;-65
2022/11/01 03:19:29;;;;;;;18.42;5.45;;;;;;;15.68;100.00;100680.03;5045660;28;20177;-68
2022/11/01 03:21:57;;;;;;;19.25;6.03;;;;;;;15.61;100.00;100681.06;5040786;28;20104;-68
2022/11/01 03:24:27;;;;;;;17.90;5.32;;;;;;;15.57;100.00;100687.34;5044541;28;20039;-68
2022/11/01 03:27:07;;;;;;;17.20;4.50;;;;;;;15.65;100.00;100696.09;5043418;28;20026;-68
2022/11/01 03:29:35;;;;;;;16.77;4.57;;;;;;;15.69;100.00;100700.44;5044514;28;20037;-67
2022/11/01 03:32:01;;;;;;;13.30;4.05;;;;;;;15.72;100.00;100685.31;5044141;28;20108;-68
2022/11/01 03:34:30;;;;;;;16.35;4.35;;;;;;;15.72;100.00;100706.63;5044948;28;20029;-69
2022/11/01 03:37:00;;;;;;;16.50;4.40;;;;;;;15.59;100.00;100704.19;5043421;28;20104;-68
2022/11/01 03:39:33;;;;;;;16.58;4.03;;;;;;;15.52;100.00;100710.53;5045085;28;20036;-69
2022/11/01 03:42:04;;;;;;;15.40;3.70;;;;;;;15.48;100.00;100715.03;5043662;28;20477;-68
2022/11/01 03:44:37;;;;;;;11.50;3.33;;;;;;;15.46;100.00;100714.16;5044628;28;20036;-68
2022/11/01 03:47:03;;;;;;;16.10;3.70;;;;;;;15.32;100.00;100734.88;5044193;28;20034;-69
2022/11/01 03:49:28;;;;;;;11.10;3.05;;;;;;;15.31;100.00;100722.44;5044490;28;20511;-69
2022/11/01 03:51:54;;;;;;;11.95;2.63;;;;;;;15.34;100.00;100735.72;5042611;28;20025;-68
2022/11/01 03:54:19;;;;;;;12.20;2.80;;;;;;;15.27;100.00;100734.91;5045835;28;20025;-68
2022/11/01 03:56:44;;;;;;;11.20;2.50;;;;;;;15.20;100.00;100751.03;5042255;28;20057;-69
2022/11/01 03:59:10;;;;;;;6.63;2.60;;;;;;;15.06;100.00;100740.63;5044983;28;20059;-68
2022/11/01 04:01:35;;;;;;;10.77;2.40;;;;;;;14.95;100.00;100751.41;5043640;28;20032;-65
2022/11/01 04:04:01;;;;;;;8.13;2.20;;;;;;;14.84;100.00;100766.66;5043548;28;20037;-68
2022/11/01 04:06:26;;;;;;;9.00;2.35;;;;;;;14.95;100.00;100762.94;5044755;28;20375;-63
2022/11/01 04:08:52;;;;;;;7.10;2.20;;;;;;;14.81;100.00;100771.13;5042154;28;20021;-63
2022/11/01 04:11:17;;;;;;;7.57;2.20;;;;;;;14.76;100.00;100790.72;5045309;28;20036;-63
2022/11/01 04:13:43;;;;;;;9.93;2.33;;;;;;;14.76;100.00;100778.28;5042665;28;20456;-63
2022/11/01 04:21:37;;;;;;;5.47;2.10;;;;;;;14.56;100.00;100804.25;5043138;28;20044;-63
2022/11/01 04:24:03;;;;;;;7.15;2.25;;;;;;;14.46;100.00;100807.03;5043223;28;20026;-63
2022/11/01 04:26:28;;;;;;;10.65;1.92;;;;;;;14.24;100.00;100817.06;5044055;28;20077;-63
2022/11/01 04:28:56;;;;;;;6.13;2.08;;;;;;;14.16;100.00;100818.03;5042234;28;20049;-62
2022/11/01 04:31:25;;;;;;;10.73;2.00;;;;;;;14.11;100.00;100826.03;5044879;28;20024;-63
2022/11/01 04:33:51;;;;;;;10.30;2.10;;;;;;;13.99;100.00;100834.16;5041771;28;20079;-64
2022/11/01 04:36:17;;;;;;;10.25;2.20;;;;;;;14.09;100.00;100830.50;5044422;28;20024;-63
2022/11/01 04:38:42;;;;;;;7.18;2.10;;;;;;;14.03;100.00;100849.16;5040535;28;20026;-63
2022/11/01 04:41:08;;;;;;;8.25;2.15;;;;;;;14.00;100.00;100843.88;5043891;28;20026;-63
2022/11/01 04:43:33;;;;;;;6.75;2.10;;;;;;;13.85;100.00;100856.41;5042830;28;20071;-63
2022/11/01 04:45:58;;;;;;;7.88;2.00;;;;;;;13.86;100.00;100860.84;5042251;28;20020;-63
2022/11/01 04:48:25;;;;;;;7.28;1.92;;;;;;;13.87;100.00;100881.19;5044383;28;20029;-63
2022/11/01 04:50:50;;;;;;;9.45;2.00;;;;;;;13.82;100.00;100860.88;5041523;28;20426;-63
2022/11/01 04:53:16;;;;;;;7.15;2.10;;;;;;;13.91;100.00;100887.38;5044931;28;20028;-68
2022/11/01 04:55:41;;;;;;;11.13;2.20;;;;;;;13.75;100.00;100887.50;5041802;28;20072;-69
2022/11/01 04:58:08;;;;;;;6.32;1.90;;;;;;;13.81;100.00;100881.25;5043162;28;20038;-69
2022/11/01 05:00:34;;;;;;;9.27;2.10;;;;;;;13.64;100.00;100912.38;5042709;28;20369;-68
2022/11/01 05:03:06;;;;;;;12.32;2.28;;;;;;;13.65;100.00;100915.03;5042165;28;20032;-69
2022/11/01 05:05:32;;;;;;;9.68;2.00;;;;;;;13.57;100.00;100925.72;5043235;28;20028;-69
2022/11/01 05:08:02;;;;;;;8.63;2.00;;;;;;;13.57;100.00;100925.72;5041774;28;20469;-69
2022/11/01 05:10:28;;;;;;;8.10;1.92;;;;;;;13.50;100.00;100920.44;5043453;28;20480;-69
2022/11/01 05:12:53;;;;;;;10.43;2.10;;;;;;;13.48;100.00;100933.72;5041422;28;20108;-68
2022/11/01 05:15:18;;;;;;;7.55;2.00;;;;;;;13.41;100.00;100929.34;5044307;28;20476;-69
2022/11/01 05:17:43;;;;;;;7.75;2.10;;;;;;;13.42;100.00;100929.31;5041161;28;20405;-68
2022/11/01 05:20:09;;;;;;;6.03;1.98;;;;;;;13.33;100.00;100937.31;5043518;28;20033;-69
2022/11/01 05:22:35;;;;;;;11.93;2.08;;;;;;;13.15;100.00;100933.00;5042564;28;20473;-63
2022/11/01 05:25:00;;;;;;;6.88;1.90;;;;;;;13.10;100.00;100953.34;5042156;28;20040;-69
2022/11/01 05:27:26;;;;;;;9.75;2.03;;;;;;;13.15;100.00;100958.63;5043520;28;20025;-68
2022/11/01 05:29:51;;;;;;;7.13;1.90;;;;;;;13.19;100.00;100942.72;5041246;28;20022;-69
2022/11/01 05:32:16;;;;;;;12.40;2.20;;;;;;;13.06;100.00;100963.13;5036773;28;20024;-68
2022/11/01 05:34:42;;;;;;;12.18;2.00;;;;;;;12.94;100.00;100980.84;5043669;28;20108;-69
2022/11/01 05:37:07;;;;;;;9.90;2.10;;;;;;;12.83;100.00;100952.59;5042288;28;20052;-67
2022/11/01 05:39:32;;;;;;;10.05;2.25;;;;;;;12.86;100.00;100967.63;5042246;28;20123;-69
2022/11/01 05:41:58;;;;;;;8.30;2.00;;;;;;;12.84;100.00;100954.34;5043093;28;20025;-69
2022/11/01 05:44:23;;;;;;;10.55;2.10;;;;;;;12.83;100.00;100962.28;5040879;28;20112;-66
2022/11/01 05:46:48;;;;;;;9.00;2.20;;;;;;;12.75;100.00;100972.06;5043952;28;20362;-69
2022/11/01 05:49:14;;;;;;;10.43;2.00;;;;;;;12.78;100.00;100967.63;5044015;28;20037;-69
2022/11/01 05:51:39;;;;;;;9.57;2.10;;;;;;;12.71;100.00;100977.38;5047394;28;20453;-69
2022/11/01 05:54:04;;;;;;;9.13;2.10;;;;;;;12.77;100.00;100983.53;5046340;28;20119;-68
2022/11/01 05:56:30;;;;;;;9.60;2.20;;;;;;;12.76;100.00;100987.09;5044457;28;20051;-69
2022/11/01 05:58:55;;;;;;;10.25;2.28;;;;;;;12.84;100.00;100986.19;5047249;28;20048;-68
2022/11/01 06:01:20;;;;;;;14.43;2.60;;;;;;;12.88;100.00;100995.00;5044394;28;20053;-69
2022/11/01 06:03:49;;;;;;;10.75;2.40;;;;;;;12.84;100.00;100985.28;5047587;28;20033;-68
2022/11/01 06:06:14;;;;;;;11.10;2.47;;;;;;;12.72;100.00;100983.56;5044521;28;20048;-69
2022/11/01 06:08:39;;;;;;;13.60;2.47;;;;;;;12.68;100.00;100977.38;5046608;28;20017;-69
2022/11/01 06:11:05;;;;;;;13.55;2.45;;;;;;;12.60;100.00;100994.19;5046058;28;20017;-69
2022/11/01 06:13:31;;;;;;;14.82;2.72;;;;;;;12.51;100.00;101009.22;5045418;28;20041;-68
2022/11/01 06:15:58;;;;;;;13.45;2.55;;;;;;;12.48;100.00;101011.88;5046683;28;20032;-68
2022/11/01 06:18:24;;;;;;;11.10;2.22;;;;;;;12.50;100.00;101018.06;5044413;28;20025;-68
2022/11/01 06:20:50;;;;;;;12.43;2.30;;;;;;;12.43;100.00;101026.91;5047449;28;20040;-68
2022/11/01 06:23:15;;;;;;;12.05;2.40;;;;;;;12.33;100.00;101023.38;5041571;28;20025;-73
2022/11/01 06:25:41;;;;;;;14.43;2.38;;;;;;;12.38;100.00;101018.09;5049334;28;20033;-70
2022/11/01 06:28:06;;;;;;;11.88;2.40;;;;;;;12.30;100.00;101030.44;5047595;28;20052;-60
2022/11/01 06:30:31;;;;;;;11.10;2.40;;;;;;;12.33;100.00;101020.75;5048565;28;20048;-59
2022/11/01 06:33:00;;;;;;;12.45;2.30;;;;;;;12.38;100.00;101034.00;5048176;28;20060;-60
2022/11/01 06:35:26;;;;;;;12.65;2.42;;;;;;;12.41;100.00;101047.25;5048279;28;20066;-60
2022/11/01 06:37:52;;;;;;;11.90;2.10;;;;;;;12.40;100.00;101044.59;5044465;28;20033;-60
2022/11/01 06:40:17;;;;;;;12.20;2.38;;;;;;;12.39;100.00;101051.63;5049010;28;20032;-60
2022/11/01 06:42:43;;;;;;;15.05;2.30;;;;;;;12.40;100.00;101048.13;5049097;28;20116;-60
2022/11/01 06:45:08;;;;;;;11.55;2.25;;;;;;;12.38;100.00;101056.06;5050807;28;20047;-60
2022/11/01 06:47:34;;;;;;;14.38;2.30;;;;;;;12.32;100.00;101060.47;5047424;28;20025;-60
2022/11/01 06:49:59;;;;;;;14.13;2.40;;;;;;;12.38;100.00;101060.50;5045758;28;20600;-60
2022/11/01 06:52:24;;;;;;;9.43;2.13;;;;;;;12.26;100.00;101071.97;5044092;28;20029;-60
2022/11/01 06:54:50;;;;;;;13.85;2.40;;;;;;;12.25;100.00;101069.31;5046056;28;20052;-60
2022/11/01 06:57:15;;;;;;;14.90;2.40;;;;;;;12.21;100.00;101069.28;5046244;28;20451;-60
2022/11/01 06:59:40;;;;;;;15.85;2.58;;;;;;;12.11;100.00;101075.47;5041521;28;20561;-60
2022/11/01 07:02:08;;;;;;;15.68;2.63;;;;;;;12.08;100.00;101067.53;5046835;28;20045;-60
2022/11/01 07:04:33;;;;;;;14.65;2.50;;;;;;;12.17;100.00;101082.53;5042821;28;20063;-60
2022/11/01 07:06:58;;;;;;;16.83;2.95;;;;;;;12.18;100.00;101090.50;5044006;28;20021;-60
2022/11/01 07:09:24;;;;;;;16.00;2.75;;;;;;;12.10;100.00;101086.97;5045969;28;20107;-61
2022/11/01 07:11:49;;;;;;;14.57;2.60;;;;;;;12.10;100.00;101100.22;5047727;28;20022;-60
2022/11/01 07:14:15;;;;;;;14.38;2.42;;;;;;;12.05;100.00;101099.31;5046878;28;20481;-60
2022/11/01 07:16:40;;;;;;;17.17;3.03;;;;;;;12.10;100.00;101102.88;5047188;28;20033;-59
2022/11/01 07:19:05;;;;;;;16.88;2.47;;;;;;;12.06;100.00;101106.38;5048532;28;20033;-60
2022/11/01 07:21:30;;;;;;;13.05;2.40;;;;;;;12.03;100.00;101107.25;5046460;28;20036;-60
2022/11/01 07:23:56;;;;;;;16.10;2.40;;;;;;;12.05;100.00;101094.00;5047241;28;20025;-61
2022/11/01 07:26:21;;;;;;;15.30;2.47;;;;;;;12.13;100.00;101139.97;5046286;28;20047;-61
2022/11/01 07:28:46;;;;;;;15.30;2.60;;;;;;;12.04;100.00;101131.97;5040896;28;20427;-61
2022/11/01 07:31:12;;;;;;;16.75;2.70;;;;;;;12.07;100.00;101139.06;5046431;28;20021;-61
2022/11/01 07:33:37;;;;;;;18.13;2.83;;;;;;;12.04;100.00;101137.28;5045416;28;20028;-61
2022/11/01 07:36:03;;;;;;;18.23;2.80;;;;;;;12.02;100.00;101144.34;5045082;28;20380;-67
2022/11/01 07:38:30;;;;;;;15.75;2.75;;;;;;;11.98;100.00;101134.63;5044024;28;20022;-67
2022/11/01 07:40:55;;;;;;;16.15;2.60;;;;;;;11.93;100.00;101141.66;5047604;28;20045;-67
2022/11/01 07:43:21;;;;;;;17.58;2.67;;;;;;;12.00;100.00;101146.13;5047351;28;20029;-66
2022/11/01 07:45:47;;;;;;;20.20;2.85;;;;;;;12.05;100.00;101154.94;5046339;28;20516;-68
2022/11/01 07:48:15;;;;;;;18.70;2.70;;;;;;;12.13;100.00;101145.28;5047150;28;20503;-68
2022/11/01 07:50:41;;;;;;;17.35;3.00;;;;;;;12.11;100.00;101147.00;5047658;28;20029;-68
2022/11/01 07:53:13;;;;;;;15.70;2.67;;;;;;;12.08;100.00;101157.59;5044219;28;20037;-68
2022/11/01 07:55:38;;;;;;;14.05;2.50;;;;;;;12.15;100.00;101164.69;5044666;28;20039;-68
2022/11/01 07:58:04;;;;;;;15.20;2.65;;;;;;;12.15;100.00;101163.81;5041953;28;20021;-68
2022/11/01 08:00:30;;;;;;;15.93;2.90;;;;;;;12.25;100.00;101176.22;5046452;28;20038;-66
2022/11/01 08:03:00;;;;;;;18.25;2.90;;;;;;;12.38;100.00;101172.72;5045994;28;20041;-68
2022/11/01 08:05:25;;;;;;;19.45;2.90;;;;;;;12.40;100.00;101182.44;5042140;28;20029;-68
2022/11/01 08:07:51;;;;;;;18.80;2.90;;;;;;;12.38;100.00;101204.53;5043635;28;20048;-66
2022/11/01 08:10:16;;;;;;;18.52;2.95;;;;;;;12.45;100.00;101186.88;5040726;28;20029;-69
2022/11/01 08:12:41;;;;;;;15.77;2.80;;;;;;;12.53;100.00;101187.75;5038499;28;20021;-68
2022/11/01 08:15:08;;;;;;;19.45;2.85;;;;;;;12.52;100.00;101193.97;5035457;28;20472;-60
2022/11/01 08:17:34;;;;;;;16.60;3.17;;;;;;;12.58;100.00;101203.66;5036803;28;20029;-60
2022/11/01 08:19:59;;;;;;;17.67;2.90;;;;;;;12.64;100.00;101214.31;5037068;28;20028;-61
2022/11/01 08:22:24;;;;;;;18.80;2.97;;;;;;;12.68;100.00;101201.94;5046209;28;20032;-60
2022/11/01 08:24:50;;;;;;;20.10;3.00;;;;;;;12.70;100.00;101206.34;5046210;28;20447;-60
2022/11/01 08:27:15;;;;;;;16.02;2.70;;;;;;;12.82;100.00;101224.06;5042820;28;20048;-61
2022/11/01 08:29:41;;;;;;;19.02;2.90;;;;;;;12.89;100.00;101191.34;5046324;28;20025;-60
2022/11/01 08:32:06;;;;;;;21.85;3.33;;;;;;;12.88;100.00;101237.31;5045175;28;20037;-60
2022/11/01 08:34:31;;;;;;;20.45;3.30;;;;;;;12.97;100.00;101190.47;5048765;28;20025;-60
2022/11/01 08:36:57;;;;;;;19.70;3.10;;;;;;;12.92;100.00;101201.06;5040949;28;20060;-61
2022/11/01 08:39:23;;;;;;;19.27;2.90;;;;;;;12.96;100.00;101218.78;5044766;28;20436;-63
2022/11/01 08:41:48;;;;;;;17.15;3.00;;;;;;;12.91;100.00;101224.06;5044110;28;20368;-64
2022/11/01 08:44:14;;;;;;;19.73;2.88;;;;;;;13.06;100.00;101224.94;5043854;28;20032;-62
2022/11/01 08:46:42;;;;;;;18.40;2.80;;;;;;;13.09;100.00;101219.63;5040989;28;20067;-63
2022/11/01 08:49:09;;;;;;;19.27;2.80;;;;;;;13.10;100.00;101232.03;5049139;28;20071;-62
2022/11/01 08:51:34;;;;;;;19.42;2.75;;;;;;;13.14;100.00;101203.72;5043810;28;20017;-63
2022/11/01 08:53:59;;;;;;;17.98;2.83;;;;;;;13.04;100.00;101226.72;5043906;28;20113;-69
2022/11/01 08:56:26;;;;;;;18.75;2.90;;;;;;;13.06;100.00;101224.94;5042623;28;20030;-67
2022/11/01 08:58:52;;;;;;;19.02;3.05;;;;;;;13.16;100.00;101244.41;5044940;28;20053;-69
2022/11/01 09:01:19;;;;;;;20.05;3.00;;;;;;;13.15;100.00;101248.84;5045147;28;20027;-69
2022/11/01 09:03:44;;;;;;;19.95;3.10;;;;;;;13.14;100.00;101233.81;5044457;28;20051;-69
2022/11/01 09:06:10;;;;;;;21.38;3.55;;;;;;;13.20;100.00;101254.16;5041943;28;20025;-68
2022/11/01 09:08:35;;;;;;;19.63;3.17;;;;;;;13.28;100.00;101243.53;5043367;28;20362;-69
2022/11/01 09:11:00;;;;;;;17.23;2.72;;;;;;;13.37;100.00;101241.78;5042390;28;20035;-69
2022/11/01 09:13:26;;;;;;;18.45;2.80;;;;;;;13.43;100.00;101248.88;5041296;28;20065;-70
2022/11/01 09:15:52;;;;;;;18.20;2.92;;;;;;;13.52;100.00;101251.50;5043640;28;20029;-69
2022/11/01 09:18:17;;;;;;;19.45;3.05;;;;;;;13.54;100.00;101244.44;5040717;28;20048;-69
2022/11/01 09:20:42;;;;;;;20.73;3.25;;;;;;;13.67;100.00;101263.88;5037231;28;20041;-70
2022/11/01 09:23:08;;;;;;;16.88;2.97;;;;;;;13.76;100.00;101255.00;5043660;28;20044;-69
2022/11/01 09:25:33;;;;;;;19.70;2.80;;;;;;;13.79;100.00;101260.34;5041800;28;20025;-69
2022/11/01 09:27:58;;;;;;;19.17;2.92;;;;;;;13.75;100.00;101269.19;5042645;28;20420;-68
2022/11/01 09:30:24;;;;;;;18.50;2.95;;;;;;;13.77;100.00;101262.09;5040974;28;20070;-68
2022/11/01 09:32:50;;;;;;;18.10;3.20;;;;;;;13.74;100.00;101247.03;5047018;28;20021;-66
2022/11/01 09:35:16;;;;;;;17.50;2.70;;;;;;;13.87;100.00;101268.28;5045387;28;20112;-72
2022/11/01 09:37:42;;;;;;;18.92;3.08;;;;;;;13.88;100.00;101289.53;5044356;28;20021;-71
2022/11/01 09:40:09;;;;;;;17.77;2.80;;;;;;;13.84;100.00;101282.44;5044111;28;20361;-71
2022/11/01 09:42:41;;;;;;;18.02;2.85;;;;;;;14.10;100.00;101292.13;5044199;28;20033;-73
2022/11/01 09:45:17;;;;;;;17.15;2.80;;;;;;;14.25;100.00;101294.72;5043513;28;20353;-70
2022/11/01 09:47:47;;;;;;;17.00;2.80;;;;;;;14.27;100.00;101306.25;5033637;28;20488;-69
2022/11/01 09:50:33;;;;;;;20.27;2.90;;;;;;;14.44;100.00;101314.13;5032462;28;20029;-72
2022/11/01 09:53:01;;;;;;;19.27;2.97;;;;;;;14.50;100.00;101281.31;5040469;28;20025;-68
2022/11/01 09:55:50;;;;;;;20.17;3.22;;;;;;;14.63;100.00;101301.69;5049237;28;20108;-68
2022/11/01 09:58:43;;;;;;;22.08;3.33;;;;;;;14.72;100.00;101308.75;5044092;28;20038;-66
2022/11/01 10:01:39;;;;;;;19.67;3.00;;;;;;;14.81;100.00;101319.34;5041906;28;20069;-59
2022/11/01 10:04:29;;;;;;;18.42;2.90;;;;;;;15.24;100.00;101326.16;5041629;28;20079;-61
2022/11/01 10:07:15;;;;;;;19.02;3.13;;;;;;;15.55;100.00;101323.22;5035662;28;20037;-61
2022/11/01 10:09:51;;;;;;;19.50;3.35;;;;;;;15.61;100.00;101330.28;5039484;28;20039;-60
2022/11/01 10:12:32;;;;;;;19.60;3.03;;;;;;;15.60;100.00;101332.09;5037813;28;20025;-60
2022/11/01 10:15:26;;;;;;;18.35;2.92;;;;;;;15.68;100.00;101340.00;5039879;28;20032;-69
2022/11/01 10:17:54;;;;;;;19.63;3.15;;;;;;;16.07;100.00;101345.88;5044163;28;20077;-69
2022/11/01 10:20:23;;;;;;;18.80;2.97;;;;;;;16.18;100.00;101343.13;5036295;28;20112;-69
2022/11/01 10:22:49;;;;;;;19.70;3.20;;;;;;;16.12;100.00;101346.72;5034799;28;20431;-72
2022/11/01 10:25:34;;;;;;;18.60;2.97;;;;;;;16.19;100.00;101328.84;5036069;28;20018;-70
2022/11/01 10:28:12;;;;;;;18.83;3.05;;;;;;;16.45;100.00;101339.22;5043121;28;20035;-66
2022/11/01 10:30:45;;;;;;;17.88;3.10;;;;;;;16.73;100.00;101345.09;5043394;28;20427;-73
2022/11/01 10:33:31;;;;;;;18.33;2.90;;;;;;;16.93;100.00;101360.00;5041138;28;20029;-69
2022/11/01 10:36:10;;;;;;;18.75;2.85;;;;;;;16.82;100.00;101343.19;5045620;28;20033;-70
2022/11/01 10:38:42;;;;;;;15.63;2.65;;;;;;;17.10;100.00;101342.88;5034610;28;20034;-69
2022/11/01 10:41:39;;;;;;;18.60;3.10;;;;;;;17.30;100.00;101354.13;5035402;28;20373;-69
2022/11/01 10:44:14;;;;;;;16.00;2.35;;;;;;;17.35;100.00;101354.91;5043001;28;20297;-70
2022/11/01 10:46:44;;;;;;;16.55;2.83;;;;;;;17.25;100.00;101337.28;5046453;28;20025;-68
2022/11/01 10:49:34;;;;;;;17.00;3.00;;;;;;;17.76;100.00;101345.31;5047149;28;20029;-68
2022/11/01 10:52:07;;;;;;;18.83;2.80;;;;;;;17.85;100.00;101333.56;5012903;28;20045;-68
2022/11/01 10:54:37;;;;;;;18.20;3.00;;;;;;;18.17;100.00;101344.63;5012327;28;20168;-62
2022/11/01 10:57:11;;;;;;;19.38;3.03;;;;;;;18.85;84.54;101338.75;5015095;28;20034;-63
2022/11/01 10:59:42;;;;;;;15.80;2.70;;;;;;;18.76;81.39;101338.97;5012461;28;20053;-61
2022/11/01 11:02:20;;;;;;;17.65;3.08;;;;;;;18.55;81.38;101337.63;5014367;28;20104;-68
2022/11/01 11:04:47;;;;;;;17.25;2.90;;;;;;;18.57;74.69;101330.44;5019665;28;20038;-68
2022/11/01 11:07:13;;;;;;;15.93;2.78;;;;;;;19.04;73.16;101343.75;5016249;28;20113;-68
2022/11/01 11:09:38;;;;;;;16.88;2.50;;;;;;;19.14;70.96;101323.84;5012443;28;20113;-68
2022/11/01 11:12:15;;;;;;;16.55;2.90;;;;;;;19.02;71.73;101340.19;5015689;28;20517;-68
2022/11/01 11:14:42;;;;;;;18.00;3.10;;;;;;;19.46;69.22;101331.09;5019511;28;20083;-68
2022/11/01 11:17:18;;;;;;;16.10;2.60;;;;;;;19.65;69.65;101336.88;5021820;28;20045;-68
2022/11/01 11:19:45;;;;;;;17.23;2.80;;;;;;;19.82;67.71;101331.09;5022860;28;20424;-68
2022/11/01 11:22:12;;;;;;;17.05;2.70;;;;;;;19.95;66.16;101344.19;5022037;28;20489;-68
2022/11/01 11:24:40;;;;;;;15.27;2.78;;;;;;;19.77;64.97;101330.31;5023684;28;20029;-67